Time;durP1;ratioP1;P1;durP2;ratioP2;P2;SDS_P1;SDS_P2;PMS_P1;PMS_P2;Temp;Humidity;BMP_temperature;BMP_pressure;BME280_temperature;BME280_humidity;BME280_pressure;Samples;Min_cycle;Max_cycle;Signal;HPM_P1;HPM_P2
2022/10/10 00:06:44;;;;;;;5.90;3.50;;;;;;;18.76;64.93;63170.97;17166537;28;20351;-33
2022/10/10 00:15:01;;;;;;;5.40;2.63;;;;;;;18.79;64.79;63169.09;17148507;28;20228;-33
2022/10/10 00:23:20;;;;;;;5.33;3.67;;;;;;;18.79;64.68;63174.91;17098530;28;20214;-33
2022/10/10 00:31:37;;;;;;;4.90;3.43;;;;;;;18.78;64.77;63173.19;17161344;28;20230;-33
2022/10/10 00:39:55;;;;;;;5.00;3.03;;;;;;;18.75;64.64;63164.59;17170155;28;20233;-33
2022/10/10 00:48:15;;;;;;;4.80;3.33;;;;;;;18.72;64.82;63166.44;17162028;28;20226;-33
2022/10/10 00:56:38;;;;;;;5.30;3.20;;;;;;;18.74;64.61;63166.09;17156890;28;20194;-33
2022/10/10 01:04:55;;;;;;;5.37;3.13;;;;;;;18.71;64.67;63158.00;17162951;28;20311;-33
2022/10/10 01:13:21;;;;;;;5.97;3.33;;;;;;;18.68;64.89;63162.50;17181077;28;20237;-33
2022/10/10 01:21:48;;;;;;;6.00;2.93;;;;;;;18.69;64.77;63155.19;17176244;28;20252;-32
2022/10/10 01:30:09;;;;;;;4.70;3.10;;;;;;;18.69;64.71;63158.38;17175740;28;20287;-33
2022/10/10 01:38:35;;;;;;;5.37;3.30;;;;;;;18.61;65.08;63155.19;17184336;28;20214;-33
2022/10/10 01:46:53;;;;;;;4.43;2.80;;;;;;;18.67;64.83;63158.19;17172444;28;20272;-33
2022/10/10 01:55:38;;;;;;;5.40;3.03;;;;;;;18.51;65.04;63143.34;17183798;28;20202;-33
2022/10/10 02:04:04;;;;;;;5.17;2.97;;;;;;;18.46;65.23;63135.09;17167225;28;20225;-34
2022/10/10 02:12:23;;;;;;;4.70;2.90;;;;;;;18.56;64.92;63146.38;17181276;28;20372;-33
2022/10/10 02:20:42;;;;;;;5.40;3.10;;;;;;;18.44;65.52;63136.03;17164889;28;20217;-33
2022/10/10 02:29:03;;;;;;;4.70;2.93;;;;;;;18.40;65.54;63131.53;17157754;28;20237;-33
2022/10/10 02:37:22;;;;;;;4.30;2.60;;;;;;;18.44;65.42;63136.03;17150979;28;20226;-33
2022/10/10 02:45:40;;;;;;;4.67;2.93;;;;;;;18.46;65.20;63137.72;17167862;28;20214;-33
2022/10/10 02:53:58;;;;;;;5.30;3.10;;;;;;;18.44;65.25;63135.47;17168058;28;20232;-33
2022/10/10 03:02:15;;;;;;;5.33;2.73;;;;;;;18.38;65.54;63129.28;17188234;28;20309;-33
2022/10/10 03:10:34;;;;;;;5.00;2.57;;;;;;;18.39;65.62;63130.97;17175048;28;20222;-33
2022/10/10 03:18:50;;;;;;;4.83;2.70;;;;;;;18.39;65.26;63130.41;17177765;28;20220;-33
2022/10/10 03:27:08;;;;;;;4.37;2.73;;;;;;;18.39;65.34;63125.72;17167265;28;20218;-34
2022/10/10 03:35:25;;;;;;;4.90;2.90;;;;;;;18.38;65.40;63129.28;17176769;28;20206;-34
2022/10/10 03:43:44;;;;;;;4.83;2.90;;;;;;;18.33;65.24;63118.97;17173037;28;20225;-34
2022/10/10 03:52:00;;;;;;;4.43;2.30;;;;;;;18.32;65.44;63123.09;17172216;28;20245;-34
2022/10/10 04:00:19;;;;;;;6.83;2.80;;;;;;;18.29;65.45;63113.94;17174743;28;20245;-34
2022/10/10 04:08:35;;;;;;;4.80;2.80;;;;;;;18.33;65.41;63123.66;17167835;28;20222;-34
2022/10/10 04:16:54;;;;;;;4.50;2.80;;;;;;;18.32;65.37;63122.53;17163801;28;20198;-34
2022/10/10 04:25:11;;;;;;;4.97;2.90;;;;;;;18.32;65.50;63122.53;17151050;28;20293;-34
2022/10/10 04:33:29;;;;;;;4.50;3.13;;;;;;;18.29;65.18;63117.09;17165721;28;20222;-34
2022/10/10 04:41:48;;;;;;;5.27;2.90;;;;;;;18.33;65.19;63118.44;17155302;28;20230;-34
2022/10/10 04:50:07;;;;;;;6.33;3.17;;;;;;;18.29;65.41;63116.56;17172897;28;20313;-34
2022/10/10 04:58:24;;;;;;;9.50;3.43;;;;;;;18.26;65.23;63116.34;17189670;28;20226;-34
2022/10/10 05:06:42;;;;;;;9.10;3.80;;;;;;;18.26;65.36;63115.78;17203073;23;20257;-32
2022/10/10 05:14:59;;;;;;;9.93;3.07;;;;;;;18.23;65.42;63115.59;17116656;28;20696;-32
2022/10/10 05:23:18;;;;;;;8.20;3.53;;;;;;;18.31;65.02;63118.78;17110966;28;20534;-32
2022/10/10 05:31:34;;;;;;;12.70;3.50;;;;;;;18.52;64.24;63144.50;17146575;28;20866;-32
2022/10/10 05:39:53;;;;;;;7.87;3.53;;;;;;;18.65;64.01;63159.66;17129014;28;20819;-33
2022/10/10 05:48:09;;;;;;;6.10;3.23;;;;;;;18.70;63.98;63164.19;17119360;28;20696;-33
2022/10/10 05:56:28;;;;;;;7.07;3.30;;;;;;;18.80;64.04;63175.44;17120293;28;20701;-33
2022/10/10 06:04:45;;;;;;;9.30;3.63;;;;;;;18.83;64.27;63178.84;17091016;28;20640;-32
2022/10/10 06:13:03;;;;;;;14.80;4.30;;;;;;;18.72;65.28;63163.81;17097194;28;20700;-32
2022/10/10 06:21:20;;;;;;;14.53;4.10;;;;;;;18.65;65.14;63159.66;17090975;28;20701;-32
2022/10/10 06:29:38;;;;;;;13.10;4.50;;;;;;;18.77;65.96;63172.06;17101841;28;20723;-31
2022/10/10 06:37:55;;;;;;;26.67;5.27;;;;;;;18.80;65.88;63173.41;17104267;28;20219;-32
2022/10/10 06:46:13;;;;;;;14.70;4.50;;;;;;;18.84;66.15;63180.53;17100879;28;20720;-31
2022/10/10 06:54:30;;;;;;;13.33;4.67;;;;;;;18.86;66.14;63179.59;17104426;28;20720;-31
2022/10/10 07:02:48;;;;;;;12.53;3.83;;;;;;;18.87;66.07;63178.09;17096403;28;20719;-30
2022/10/10 07:11:07;;;;;;;14.63;3.70;;;;;;;18.93;65.93;63187.47;17096097;28;20591;-32
2022/10/10 07:19:25;;;;;;;9.13;3.60;;;;;;;19.00;65.78;63192.19;17092652;28;20587;-32
2022/10/10 07:27:42;;;;;;;14.07;4.10;;;;;;;19.04;66.19;63199.28;17112294;28;20222;-32
2022/10/10 07:36:00;;;;;;;15.80;3.77;;;;;;;19.02;66.48;63192.38;17104113;28;20250;-32
2022/10/10 07:44:17;;;;;;;13.03;3.90;;;;;;;19.19;66.76;63218.78;17096857;28;20697;-32
2022/10/10 07:52:36;;;;;;;14.57;4.20;;;;;;;19.28;66.66;63223.13;17095468;28;20230;-32
2022/10/10 08:01:01;;;;;;;11.00;3.60;;;;;;;19.24;66.98;63229.13;17091837;28;20223;-32
2022/10/10 08:09:20;;;;;;;17.97;4.10;;;;;;;19.21;67.06;63221.06;17098862;28;20229;-32
2022/10/10 08:17:36;;;;;;;12.70;4.03;;;;;;;19.22;67.48;63219.00;17103476;28;20222;-31
2022/10/10 08:25:58;;;;;;;18.00;4.90;;;;;;;19.24;67.94;63218.63;17110961;28;20229;-31
2022/10/10 08:34:15;;;;;;;10.53;4.30;;;;;;;19.29;67.89;63229.50;17109989;28;20272;-32
2022/10/10 09:12:42;;;;;;;8.80;3.30;;;;;;;18.70;65.32;63164.75;17403595;27;20748;-34
2022/10/10 09:21:05;;;;;;;6.00;2.83;;;;;;;18.90;64.01;63184.09;17398395;28;20219;-35
2022/10/10 09:29:31;;;;;;;19.63;3.00;;;;;;;18.91;63.96;63180.00;17417269;28;20298;-35
2022/10/10 09:37:50;;;;;;;4.90;2.70;;;;;;;19.00;64.17;63197.97;17404056;28;20230;-35
2022/10/10 09:46:09;;;;;;;9.57;3.67;;;;;;;18.86;65.10;63182.22;17418277;28;20231;-35
2022/10/10 09:54:28;;;;;;;7.53;3.13;;;;;;;19.13;64.05;63212.03;17423101;28;20212;-35
2022/10/10 10:02:48;;;;;;;5.80;2.77;;;;;;;19.13;63.42;63211.47;17409679;28;20218;-35
2022/10/10 10:11:06;;;;;;;16.30;9.30;;;;;;;19.30;63.40;63231.19;17444134;27;20219;-34
2022/10/10 10:19:35;;;;;;;11.30;5.00;;;;;;;19.31;63.08;63226.50;17428452;27;20231;-34
2022/10/10 10:27:51;;;;;;;9.33;5.00;;;;;;;19.36;62.99;63236.81;17432755;27;20207;-34
2022/10/10 10:36:25;;;;;;;11.60;4.03;;;;;;;19.41;63.76;63243.03;17425334;27;20276;-35
2022/10/10 10:44:50;;;;;;;10.50;3.97;;;;;;;19.40;65.94;63241.31;17436312;27;20250;-35
2022/10/10 10:53:17;;;;;;;12.77;3.50;;;;;;;19.43;67.10;63245.28;17427927;27;20207;-35
2022/10/10 11:01:42;;;;;;;14.43;3.20;;;;;;;19.44;68.35;63246.41;17444932;27;20251;-34
2022/10/10 11:10:08;;;;;;;13.07;3.87;;;;;;;19.44;66.51;63243.78;17439060;27;20350;-34
2022/10/10 11:18:31;;;;;;;7.17;2.83;;;;;;;19.44;62.82;63248.47;17439666;27;20352;-34
2022/10/10 11:26:56;;;;;;;14.50;3.47;;;;;;;19.48;63.06;63248.28;17432131;27;20234;-34
2022/10/10 11:35:24;;;;;;;8.73;3.00;;;;;;;19.47;60.16;63249.78;17417301;27;20227;-36
2022/10/10 11:43:49;;;;;;;8.53;2.63;;;;;;;19.59;60.20;63257.50;17438733;27;20269;-34
2022/10/10 11:52:19;;;;;;;12.73;3.47;;;;;;;19.51;58.79;63249.03;17444637;27;20301;-34
2022/10/10 12:00:42;;;;;;;8.33;3.10;;;;;;;19.64;60.16;63263.13;17439677;27;20226;-34
2022/10/10 12:09:03;;;;;;;7.53;3.20;;;;;;;19.91;59.39;63298.25;17427659;27;20339;-34
2022/10/10 12:17:25;;;;;;;16.03;2.47;;;;;;;20.75;57.96;63385.47;17413684;27;20274;-34
2022/10/10 12:25:45;;;;;;;15.83;3.07;;;;;;;27.04;42.85;64081.13;17434687;27;20210;-35
2022/10/10 12:34:19;;;;;;;9.17;2.70;;;;;;;28.97;38.02;64295.66;17431851;27;20206;-33
2022/10/10 12:42:39;;;;;;;8.33;2.60;;;;;;;28.12;38.32;64198.19;17442221;27;20287;-34
2022/10/10 12:51:00;;;;;;;7.50;2.80;;;;;;;21.96;54.14;63521.25;17433651;27;20215;-35
2022/10/10 12:59:20;;;;;;;5.07;2.17;;;;;;;21.04;57.60;63419.66;17413295;28;20231;-35
2022/10/10 13:07:39;;;;;;;6.53;2.40;;;;;;;20.79;58.42;63395.22;17418732;28;20227;-35
2022/10/10 13:15:58;;;;;;;6.93;2.63;;;;;;;20.64;58.85;63378.31;17413248;28;20227;-34
2022/10/10 13:24:18;;;;;;;5.37;2.30;;;;;;;20.66;60.00;63381.13;17412604;28;20208;-35
2022/10/10 13:32:36;;;;;;;10.93;2.80;;;;;;;20.55;60.84;63368.72;17418114;28;20222;-34
2022/10/10 13:40:54;;;;;;;10.30;2.57;;;;;;;20.59;61.34;63367.44;17405736;28;20315;-35
2022/10/10 13:49:22;;;;;;;7.67;2.77;;;;;;;20.45;61.34;63352.72;17431390;27;20211;-34
2022/10/10 13:57:41;;;;;;;6.43;2.47;;;;;;;20.43;62.09;63355.72;17455157;27;20221;-36
2022/10/10 14:05:58;;;;;;;9.47;2.47;;;;;;;20.15;62.95;63318.94;17433350;27;20325;-35
2022/10/10 14:14:20;;;;;;;7.03;2.57;;;;;;;20.05;64.30;63315.50;17444431;27;20199;-35
2022/10/10 14:22:37;;;;;;;8.13;2.90;;;;;;;20.14;65.41;63317.78;17425255;27;20223;-34
2022/10/10 14:30:55;;;;;;;10.43;2.63;;;;;;;20.00;65.48;63303.16;17424474;27;20219;-34
2022/10/10 14:39:13;;;;;;;8.43;2.90;;;;;;;20.01;66.15;63303.72;17426142;27;20224;-36
2022/10/10 14:47:31;;;;;;;12.03;2.60;;;;;;;20.07;65.15;63315.16;17394454;27;20212;-35
2022/10/10 14:55:48;;;;;;;12.90;2.90;;;;;;;20.08;64.84;63314.22;17432961;27;20238;-36
2022/10/10 15:04:06;;;;;;;7.40;2.60;;;;;;;20.10;64.57;63324.34;17430363;27;20207;-33
2022/10/10 15:12:24;;;;;;;4.87;2.20;;;;;;;20.07;64.38;63315.72;17396756;27;20231;-35
2022/10/10 15:20:42;;;;;;;6.30;2.20;;;;;;;20.05;64.59;63307.66;17447750;22;20227;-34
2022/10/10 15:28:59;;;;;;;8.33;2.33;;;;;;;20.02;64.57;63312.13;17407760;28;20216;-34
2022/10/10 15:37:18;;;;;;;4.40;2.30;;;;;;;20.02;64.60;63309.50;17360563;28;20219;-34
2022/10/10 15:45:35;;;;;;;4.63;2.00;;;;;;;20.01;64.48;63306.31;17348923;28;20224;-33
2022/10/10 15:53:55;;;;;;;8.33;2.57;;;;;;;19.97;64.56;63302.38;17378610;28;20352;-34
2022/10/10 16:02:12;;;;;;;7.20;2.70;;;;;;;19.98;64.39;63306.13;17365545;28;20224;-34
2022/10/10 16:10:31;;;;;;;5.57;2.30;;;;;;;19.98;64.37;63306.13;17368151;28;20225;-34
2022/10/10 16:18:48;;;;;;;5.33;2.50;;;;;;;19.97;64.40;63299.75;17354896;28;20220;-34
2022/10/10 16:27:06;;;;;;;7.90;3.20;;;;;;;19.98;64.23;63300.88;17374711;28;20244;-34
2022/10/10 16:35:23;;;;;;;4.60;2.50;;;;;;;19.98;64.06;63300.31;17363786;28;20224;-34
2022/10/10 16:43:43;;;;;;;5.63;2.40;;;;;;;19.98;64.23;63303.50;17379437;28;20219;-34
2022/10/10 16:52:00;;;;;;;4.40;2.07;;;;;;;20.00;63.75;63307.84;17372775;28;20223;-34
2022/10/10 17:00:19;;;;;;;5.50;2.63;;;;;;;19.98;63.88;63306.13;17376670;28;20293;-34
2022/10/10 17:08:36;;;;;;;9.30;2.50;;;;;;;19.93;63.89;63303.13;17369925;28;20224;-34
2022/10/10 17:16:54;;;;;;;6.67;2.23;;;;;;;19.93;65.88;63297.88;17366617;28;20242;-33
2022/10/10 17:25:11;;;;;;;8.60;2.40;;;;;;;19.97;66.13;63304.44;17348433;28;20232;-34
2022/10/10 17:33:29;;;;;;;17.83;2.50;;;;;;;19.82;66.91;63282.88;17363657;28;20217;-33
2022/10/10 17:41:47;;;;;;;4.90;1.90;;;;;;;19.80;66.61;63285.28;17358728;28;20253;-33
2022/10/10 17:50:07;;;;;;;10.83;2.50;;;;;;;19.80;66.93;63282.66;17354722;28;20239;-33
2022/10/10 17:58:25;;;;;;;6.20;2.80;;;;;;;19.78;66.90;63283.59;17356508;28;20227;-34
2022/10/10 18:06:43;;;;;;;7.47;3.03;;;;;;;19.77;66.69;63279.84;17350407;28;20195;-33
2022/10/10 18:15:01;;;;;;;5.73;2.43;;;;;;;19.75;66.70;63274.97;17351399;28;20228;-33
2022/10/10 18:23:20;;;;;;;6.77;2.27;;;;;;;19.82;67.90;63290.75;17359268;28;20243;-33
2022/10/10 18:31:38;;;;;;;6.10;2.40;;;;;;;19.85;69.67;63291.50;17344399;28;20228;-32
2022/10/10 18:39:56;;;;;;;9.30;2.50;;;;;;;19.89;68.90;63292.81;17346221;28;20215;-32
2022/10/10 18:48:14;;;;;;;10.20;2.70;;;;;;;19.89;69.24;63293.38;17352470;28;20250;-33
2022/10/10 18:56:53;;;;;;;22.13;3.60;;;;;;;19.90;68.77;63296.56;17366088;28;20228;-33
2022/10/10 19:05:10;;;;;;;10.23;3.03;;;;;;;19.85;69.06;63290.94;17368217;28;20238;-33
2022/10/10 19:13:28;;;;;;;15.77;3.13;;;;;;;19.90;69.17;63297.13;17354049;28;20222;-32
2022/10/10 19:21:47;;;;;;;6.43;2.50;;;;;;;19.90;69.05;63296.56;17354410;28;20372;-33
2022/10/10 19:30:06;;;;;;;12.67;3.40;;;;;;;19.94;68.17;63296.38;17351543;28;20212;-32
2022/10/10 19:38:23;;;;;;;19.77;2.63;;;;;;;19.93;67.86;63302.56;17357415;28;20264;-32
2022/10/10 19:46:41;;;;;;;9.63;3.33;;;;;;;19.98;67.57;63308.75;17368351;28;20199;-32
2022/10/10 19:54:58;;;;;;;9.93;2.60;;;;;;;19.99;67.37;63307.28;17425662;28;20246;-33
2022/10/10 20:03:17;;;;;;;5.83;2.40;;;;;;;19.96;67.34;63301.25;17429342;28;20270;-32
2022/10/10 20:11:34;;;;;;;10.60;2.50;;;;;;;19.97;67.17;63301.84;17413056;28;20228;-32
2022/10/10 20:19:52;;;;;;;8.87;2.67;;;;;;;20.00;66.98;63302.59;17378708;28;20220;-31
2022/10/10 20:28:09;;;;;;;6.90;2.80;;;;;;;20.03;66.76;63310.66;17398342;28;20192;-38
2022/10/10 20:36:29;;;;;;;7.00;2.40;;;;;;;20.04;66.69;63311.78;17367281;28;20224;-32
2022/10/10 20:44:45;;;;;;;8.00;2.20;;;;;;;19.96;66.75;63303.31;17379444;28;20247;-33
2022/10/10 20:53:04;;;;;;;6.70;3.00;;;;;;;19.95;66.73;63307.44;17378195;28;20239;-33
2022/10/10 21:01:23;;;;;;;8.63;3.10;;;;;;;19.98;66.53;63306.13;17405405;22;20228;-31
2022/10/10 21:09:41;;;;;;;4.83;2.30;;;;;;;20.00;66.51;63307.84;17292127;28;20217;-31
2022/10/10 21:17:58;;;;;;;9.97;2.80;;;;;;;19.97;66.38;63299.75;17286900;28;20324;-32
2022/10/10 21:26:19;;;;;;;6.60;2.40;;;;;;;19.98;66.29;63303.50;17298678;28;20200;-32
2022/10/10 21:34:36;;;;;;;6.10;2.23;;;;;;;19.99;66.27;63307.28;17299989;28;20226;-32
2022/10/10 21:42:54;;;;;;;13.93;2.00;;;;;;;20.02;66.21;63304.25;17299545;28;20225;-32
2022/10/10 21:51:12;;;;;;;7.93;2.27;;;;;;;19.89;66.61;63293.38;17295183;28;20225;-32
2022/10/10 21:59:31;;;;;;;8.80;2.40;;;;;;;19.89;66.38;63293.38;17301416;28;20225;-32
2022/10/10 22:07:48;;;;;;;7.70;2.90;;;;;;;19.86;66.54;63292.63;17304755;28;20193;-32
2022/10/10 22:16:07;;;;;;;6.73;2.77;;;;;;;19.86;66.51;63290.00;17301219;28;20240;-32
2022/10/10 22:24:24;;;;;;;6.13;2.43;;;;;;;19.88;66.44;63291.69;17304285;28;20225;-33
2022/10/10 22:32:42;;;;;;;5.33;2.30;;;;;;;19.86;66.35;63284.19;17308366;28;20218;-34
2022/10/10 22:40:59;;;;;;;4.00;2.00;;;;;;;19.84;66.49;63290.34;17313911;28;20227;-33
2022/10/10 22:49:17;;;;;;;5.40;1.90;;;;;;;19.83;66.25;63283.97;17309862;28;20217;-33
2022/10/10 22:57:34;;;;;;;5.13;2.30;;;;;;;19.84;66.24;63289.78;17297737;28;20235;-32
2022/10/10 23:05:53;;;;;;;10.40;2.10;;;;;;;19.83;66.21;63289.22;17300341;28;20296;-32
2022/10/10 23:14:09;;;;;;;4.13;2.37;;;;;;;19.81;66.40;63281.72;17304227;28;20231;-32
2022/10/10 23:22:28;;;;;;;4.00;2.07;;;;;;;19.81;66.39;63286.41;17341813;28;20292;-32
2022/10/10 23:30:46;;;;;;;5.30;1.97;;;;;;;19.84;66.14;63287.16;17342159;28;20248;-32
2022/10/10 23:39:05;;;;;;;5.83;2.00;;;;;;;19.84;66.14;63289.78;17347086;28;20320;-31
2022/10/10 23:47:22;;;;;;;5.40;2.07;;;;;;;19.83;66.02;63286.59;17343581;28;20235;-31
2022/10/10 23:55:40;;;;;;;4.30;2.10;;;;;;;19.85;65.98;63290.94;17307441;28;20225;-31
